This is the latest recevied weather packets stored in our database for station/object KLRF. If no packets are shown the sender has not sent any weather packets the latest 10 day(s).
| Time | Temp. | Humidity | Pressure | Rain* | Wind** | Luminosity | Snow |
|---|---|---|---|---|---|---|---|
| 1777416813 | 25.56° C | 74% | 1008.8 hPa | - | - | - | - |
| 1777416218 | 25.56° C | 74% | 1008.8 hPa | - | - | - | - |
| 1777415619 | 25.56° C | 74% | 1008.8 hPa | - | - | - | - |
| 1777415015 | 25.56° C | 74% | 1008.8 hPa | - | - | - | - |
| 1777414415 | 25.56° C | 74% | 1008.8 hPa | - | - | - | - |
| 1777413820 | 25.56° C | 69% | 1009.1 hPa | - | - | - | - |
| 1777413214 | 25.56° C | 69% | 1009.1 hPa | - | - | - | - |
| 1777412616 | 25.56° C | 69% | 1009.1 hPa | - | - | - | - |
| 1777412019 | 25.56° C | 69% | 1009.1 hPa | - | - | - | - |
| 1777411418 | 25.56° C | 69% | 1009.1 hPa | - | - | - | - |
| 1777410813 | 25.56° C | 69% | 1009.1 hPa | - | - | - | - |
| 1777410216 | 22.78° C | 78% | 1010.2 hPa | - | - | - | - |
| 1777409613 | 22.78° C | 78% | 1010.2 hPa | - | - | - | - |
| 1777409017 | 22.78° C | 78% | 1010.2 hPa | - | - | - | - |
| 1777408413 | 22.78° C | 78% | 1010.2 hPa | - | - | - | - |
| 1777407941 | 22.78° C | 78% | 1010.2 hPa | - | - | - | - |
| 1777407219 | 22.78° C | 78% | 1010.2 hPa | - | - | - | - |
| 1777406618 | 21.67° C | 83% | 1010.5 hPa | - | - | - | - |
| 1777406012 | 20.56° C | 88% | 1009.8 hPa | - | - | - | - |
| 1777405419 | 21.67° C | 88% | 1012.9 hPa | - | - | - | - |
| 1777404820 | 22.78° C | 94% | 1013.5 hPa | - | - | - | - |
| 1777404220 | 22.78° C | 100% | 1012.5 hPa | - | - | - | - |
| 1777403618 | 22.78° C | 94% | 1012.9 hPa | - | - | - | - |
| 1777403019 | 23.89° C | 88% | 1012.5 hPa | - | - | - | - |
| 1777402419 | 22.78° C | 94% | 1012.2 hPa | - | - | - | - |
* Rain since midnight (hover to see other rain measurements)
** Current wind speed in m/s (hover to see current wind gust speed)